sensor_id;sensor_type;location;lat;lon;timestamp;P1;durP1;ratioP1;P2;durP2;ratioP2
69334;SDS011;56477;52.742;15.242;2023-05-19T00:01:44;3.83;;;0.88;;
69334;SDS011;56477;52.742;15.242;2023-05-19T00:04:13;4.20;;;1.17;;
69334;SDS011;56477;52.742;15.242;2023-05-19T00:06:39;3.50;;;1.17;;
69334;SDS011;56477;52.742;15.242;2023-05-19T00:09:09;3.10;;;1.10;;
69334;SDS011;56477;52.742;15.242;2023-05-19T00:11:36;4.93;;;1.45;;
69334;SDS011;56477;52.742;15.242;2023-05-19T00:14:04;4.97;;;1.80;;
69334;SDS011;56477;52.742;15.242;2023-05-19T00:16:32;4.13;;;1.07;;
69334;SDS011;56477;52.742;15.242;2023-05-19T00:18:59;4.22;;;1.42;;
69334;SDS011;56477;52.742;15.242;2023-05-19T00:21:27;3.50;;;1.20;;
69334;SDS011;56477;52.742;15.242;2023-05-19T00:23:54;4.95;;;1.50;;
69334;SDS011;56477;52.742;15.242;2023-05-19T00:26:20;3.33;;;1.40;;
69334;SDS011;56477;52.742;15.242;2023-05-19T00:28:51;4.27;;;1.30;;
69334;SDS011;56477;52.742;15.242;2023-05-19T00:31:17;3.70;;;1.30;;
69334;SDS011;56477;52.742;15.242;2023-05-19T00:33:43;7.20;;;1.85;;
69334;SDS011;56477;52.742;15.242;2023-05-19T00:36:09;3.17;;;1.52;;
69334;SDS011;56477;52.742;15.242;2023-05-19T00:38:36;7.00;;;1.47;;
69334;SDS011;56477;52.742;15.242;2023-05-19T00:41:03;5.85;;;1.40;;
69334;SDS011;56477;52.742;15.242;2023-05-19T00:43:30;3.65;;;1.23;;
69334;SDS011;56477;52.742;15.242;2023-05-19T00:45:59;3.63;;;1.40;;
69334;SDS011;56477;52.742;15.242;2023-05-19T00:48:26;5.25;;;1.13;;
69334;SDS011;56477;52.742;15.242;2023-05-19T00:50:52;3.57;;;1.10;;
69334;SDS011;56477;52.742;15.242;2023-05-19T00:53:20;4.28;;;1.33;;
69334;SDS011;56477;52.742;15.242;2023-05-19T00:55:48;3.38;;;1.40;;
69334;SDS011;56477;52.742;15.242;2023-05-19T00:58:15;3.95;;;1.02;;
69334;SDS011;56477;52.742;15.242;2023-05-19T01:00:41;4.40;;;1.50;;
69334;SDS011;56477;52.742;15.242;2023-05-19T01:03:07;4.33;;;1.20;;
69334;SDS011;56477;52.742;15.242;2023-05-19T01:05:38;2.83;;;0.90;;
69334;SDS011;56477;52.742;15.242;2023-05-19T01:08:09;3.50;;;1.02;;
69334;SDS011;56477;52.742;15.242;2023-05-19T01:10:35;3.78;;;1.08;;
69334;SDS011;56477;52.742;15.242;2023-05-19T01:13:01;3.83;;;1.10;;
69334;SDS011;56477;52.742;15.242;2023-05-19T01:15:28;4.40;;;1.27;;
69334;SDS011;56477;52.742;15.242;2023-05-19T01:18:04;4.35;;;0.93;;
69334;SDS011;56477;52.742;15.242;2023-05-19T01:20:38;3.92;;;1.02;;
69334;SDS011;56477;52.742;15.242;2023-05-19T01:31:16;6.95;;;1.23;;
69334;SDS011;56477;52.742;15.242;2023-05-19T01:33:45;3.15;;;0.98;;
69334;SDS011;56477;52.742;15.242;2023-05-19T01:36:13;4.22;;;0.70;;
69334;SDS011;56477;52.742;15.242;2023-05-19T01:38:40;4.60;;;0.63;;
69334;SDS011;56477;52.742;15.242;2023-05-19T01:41:08;2.77;;;0.80;;
69334;SDS011;56477;52.742;15.242;2023-05-19T01:43:34;3.28;;;0.90;;
69334;SDS011;56477;52.742;15.242;2023-05-19T01:46:01;3.15;;;0.80;;
69334;SDS011;56477;52.742;15.242;2023-05-19T01:48:27;4.28;;;1.00;;
69334;SDS011;56477;52.742;15.242;2023-05-19T01:50:54;1.98;;;0.63;;
69334;SDS011;56477;52.742;15.242;2023-05-19T01:53:22;4.07;;;0.93;;
69334;SDS011;56477;52.742;15.242;2023-05-19T01:55:49;2.33;;;0.70;;
69334;SDS011;56477;52.742;15.242;2023-05-19T02:09:36;2.97;;;0.60;;
69334;SDS011;56477;52.742;15.242;2023-05-19T02:12:15;2.40;;;0.73;;
69334;SDS011;56477;52.742;15.242;2023-05-19T02:14:49;2.72;;;1.05;;
69334;SDS011;56477;52.742;15.242;2023-05-19T02:17:19;2.33;;;0.40;;
69334;SDS011;56477;52.742;15.242;2023-05-19T02:19:47;3.67;;;0.80;;
69334;SDS011;56477;52.742;15.242;2023-05-19T02:22:13;2.25;;;0.68;;
69334;SDS011;56477;52.742;15.242;2023-05-19T02:24:39;4.15;;;0.70;;
69334;SDS011;56477;52.742;15.242;2023-05-19T02:27:05;3.05;;;1.35;;
69334;SDS011;56477;52.742;15.242;2023-05-19T02:29:32;4.47;;;1.27;;
69334;SDS011;56477;52.742;15.242;2023-05-19T02:31:59;2.40;;;0.60;;
69334;SDS011;56477;52.742;15.242;2023-05-19T02:34:26;2.95;;;0.80;;
69334;SDS011;56477;52.742;15.242;2023-05-19T02:36:52;2.97;;;1.00;;
69334;SDS011;56477;52.742;15.242;2023-05-19T02:39:18;2.33;;;0.60;;
69334;SDS011;56477;52.742;15.242;2023-05-19T02:41:44;2.70;;;0.70;;
69334;SDS011;56477;52.742;15.242;2023-05-19T02:44:10;4.78;;;0.90;;
69334;SDS011;56477;52.742;15.242;2023-05-19T02:46:36;5.73;;;0.73;;
69334;SDS011;56477;52.742;15.242;2023-05-19T02:49:02;1.98;;;0.70;;
69334;SDS011;56477;52.742;15.242;2023-05-19T02:51:28;2.22;;;0.65;;
69334;SDS011;56477;52.742;15.242;2023-05-19T02:53:54;3.83;;;0.90;;
69334;SDS011;56477;52.742;15.242;2023-05-19T02:56:20;2.88;;;0.40;;
69334;SDS011;56477;52.742;15.242;2023-05-19T02:58:46;3.50;;;0.80;;
69334;SDS011;56477;52.742;15.242;2023-05-19T03:01:12;2.45;;;0.40;;
69334;SDS011;56477;52.742;15.242;2023-05-19T03:03:38;5.37;;;0.80;;
69334;SDS011;56477;52.742;15.242;2023-05-19T03:06:04;2.15;;;0.70;;
69334;SDS011;56477;52.742;15.242;2023-05-19T03:08:33;3.25;;;0.82;;
69334;SDS011;56477;52.742;15.242;2023-05-19T03:11:00;2.83;;;1.20;;
69334;SDS011;56477;52.742;15.242;2023-05-19T03:13:27;4.80;;;0.47;;
69334;SDS011;56477;52.742;15.242;2023-05-19T03:15:53;3.15;;;0.95;;
69334;SDS011;56477;52.742;15.242;2023-05-19T03:18:22;3.55;;;0.80;;
69334;SDS011;56477;52.742;15.242;2023-05-19T03:20:49;5.22;;;0.80;;
69334;SDS011;56477;52.742;15.242;2023-05-19T03:23:15;3.35;;;0.60;;
69334;SDS011;56477;52.742;15.242;2023-05-19T03:25:41;4.03;;;0.70;;
69334;SDS011;56477;52.742;15.242;2023-05-19T03:28:07;3.97;;;0.80;;
69334;SDS011;56477;52.742;15.242;2023-05-19T03:30:33;3.17;;;1.00;;
69334;SDS011;56477;52.742;15.242;2023-05-19T03:32:59;3.37;;;0.90;;
69334;SDS011;56477;52.742;15.242;2023-05-19T03:35:26;4.43;;;1.00;;
69334;SDS011;56477;52.742;15.242;2023-05-19T03:37:52;4.50;;;0.90;;
69334;SDS011;56477;52.742;15.242;2023-05-19T03:40:18;3.97;;;0.73;;
69334;SDS011;56477;52.742;15.242;2023-05-19T03:42:44;3.17;;;0.70;;
69334;SDS011;56477;52.742;15.242;2023-05-19T03:45:10;2.92;;;0.80;;
69334;SDS011;56477;52.742;15.242;2023-05-19T03:47:36;3.30;;;0.77;;
69334;SDS011;56477;52.742;15.242;2023-05-19T03:50:02;2.90;;;0.90;;
69334;SDS011;56477;52.742;15.242;2023-05-19T03:52:28;2.75;;;0.88;;
69334;SDS011;56477;52.742;15.242;2023-05-19T03:54:54;3.13;;;1.00;;
69334;SDS011;56477;52.742;15.242;2023-05-19T03:57:22;2.17;;;0.55;;
69334;SDS011;56477;52.742;15.242;2023-05-19T03:59:48;6.10;;;0.60;;
69334;SDS011;56477;52.742;15.242;2023-05-19T04:02:14;2.83;;;0.80;;
69334;SDS011;56477;52.742;15.242;2023-05-19T04:04:39;3.85;;;0.68;;
69334;SDS011;56477;52.742;15.242;2023-05-19T04:07:06;3.35;;;0.60;;
69334;SDS011;56477;52.742;15.242;2023-05-19T04:09:32;5.20;;;0.90;;
69334;SDS011;56477;52.742;15.242;2023-05-19T04:12:00;2.40;;;0.60;;
69334;SDS011;56477;52.742;15.242;2023-05-19T04:14:29;4.57;;;1.17;;
69334;SDS011;56477;52.742;15.242;2023-05-19T04:16:55;4.38;;;1.38;;
69334;SDS011;56477;52.742;15.242;2023-05-19T04:19:21;2.72;;;1.10;;
69334;SDS011;56477;52.742;15.242;2023-05-19T04:21:47;3.87;;;1.33;;
69334;SDS011;56477;52.742;15.242;2023-05-19T04:24:13;2.95;;;0.60;;
69334;SDS011;56477;52.742;15.242;2023-05-19T04:26:39;3.38;;;0.82;;
69334;SDS011;56477;52.742;15.242;2023-05-19T04:29:06;3.50;;;0.63;;
69334;SDS011;56477;52.742;15.242;2023-05-19T04:31:33;4.68;;;1.00;;
69334;SDS011;56477;52.742;15.242;2023-05-19T04:34:00;4.45;;;1.48;;
69334;SDS011;56477;52.742;15.242;2023-05-19T04:36:26;5.35;;;0.90;;
69334;SDS011;56477;52.742;15.242;2023-05-19T04:38:52;3.33;;;0.73;;
69334;SDS011;56477;52.742;15.242;2023-05-19T04:41:19;3.25;;;0.85;;
69334;SDS011;56477;52.742;15.242;2023-05-19T04:43:46;5.55;;;0.77;;
69334;SDS011;56477;52.742;15.242;2023-05-19T04:46:13;2.45;;;0.73;;
69334;SDS011;56477;52.742;15.242;2023-05-19T04:48:39;3.03;;;0.80;;
69334;SDS011;56477;52.742;15.242;2023-05-19T04:51:05;3.50;;;1.00;;
69334;SDS011;56477;52.742;15.242;2023-05-19T04:53:31;3.50;;;1.00;;
69334;SDS011;56477;52.742;15.242;2023-05-19T04:55:58;5.32;;;1.50;;
69334;SDS011;56477;52.742;15.242;2023-05-19T04:58:25;2.60;;;0.80;;
69334;SDS011;56477;52.742;15.242;2023-05-19T05:00:52;5.63;;;0.80;;
69334;SDS011;56477;52.742;15.242;2023-05-19T05:03:22;3.43;;;0.60;;
69334;SDS011;56477;52.742;15.242;2023-05-19T05:05:49;9.52;;;0.50;;
69334;SDS011;56477;52.742;15.242;2023-05-19T05:08:16;3.45;;;0.68;;
69334;SDS011;56477;52.742;15.242;2023-05-19T05:10:48;2.35;;;0.75;;
69334;SDS011;56477;52.742;15.242;2023-05-19T05:13:17;2.40;;;0.70;;
69334;SDS011;56477;52.742;15.242;2023-05-19T05:15:46;2.87;;;0.60;;
69334;SDS011;56477;52.742;15.242;2023-05-19T05:18:12;7.07;;;0.70;;
69334;SDS011;56477;52.742;15.242;2023-05-19T05:20:43;3.28;;;1.08;;
69334;SDS011;56477;52.742;15.242;2023-05-19T05:23:10;3.75;;;0.90;;
69334;SDS011;56477;52.742;15.242;2023-05-19T05:25:39;5.32;;;1.02;;
69334;SDS011;56477;52.742;15.242;2023-05-19T05:28:06;1.97;;;0.63;;
69334;SDS011;56477;52.742;15.242;2023-05-19T05:30:32;2.92;;;0.70;;
69334;SDS011;56477;52.742;15.242;2023-05-19T05:32:59;5.80;;;0.90;;
69334;SDS011;56477;52.742;15.242;2023-05-19T05:35:26;3.28;;;0.93;;
69334;SDS011;56477;52.742;15.242;2023-05-19T05:37:53;3.55;;;0.85;;
69334;SDS011;56477;52.742;15.242;2023-05-19T05:40:19;5.30;;;0.93;;
69334;SDS011;56477;52.742;15.242;2023-05-19T05:42:45;5.03;;;1.08;;
69334;SDS011;56477;52.742;15.242;2023-05-19T05:45:11;6.28;;;1.20;;
69334;SDS011;56477;52.742;15.242;2023-05-19T05:47:37;5.00;;;1.80;;
69334;SDS011;56477;52.742;15.242;2023-05-19T05:50:04;4.50;;;0.83;;
69334;SDS011;56477;52.742;15.242;2023-05-19T05:52:31;3.22;;;0.82;;
69334;SDS011;56477;52.742;15.242;2023-05-19T05:54:57;2.58;;;1.00;;
69334;SDS011;56477;52.742;15.242;2023-05-19T05:57:23;6.80;;;0.80;;
69334;SDS011;56477;52.742;15.242;2023-05-19T05:59:49;4.15;;;1.17;;
69334;SDS011;56477;52.742;15.242;2023-05-19T06:02:16;4.07;;;1.20;;
69334;SDS011;56477;52.742;15.242;2023-05-19T06:04:42;6.03;;;1.35;;
69334;SDS011;56477;52.742;15.242;2023-05-19T06:07:08;6.90;;;1.23;;
69334;SDS011;56477;52.742;15.242;2023-05-19T06:09:34;4.30;;;1.20;;
69334;SDS011;56477;52.742;15.242;2023-05-19T06:12:00;4.38;;;1.50;;
69334;SDS011;56477;52.742;15.242;2023-05-19T06:14:27;5.82;;;1.25;;
69334;SDS011;56477;52.742;15.242;2023-05-19T06:16:52;7.93;;;1.30;;
69334;SDS011;56477;52.742;15.242;2023-05-19T06:19:20;6.37;;;1.97;;
69334;SDS011;56477;52.742;15.242;2023-05-19T06:21:45;3.85;;;1.50;;
69334;SDS011;56477;52.742;15.242;2023-05-19T06:24:12;4.55;;;2.00;;
69334;SDS011;56477;52.742;15.242;2023-05-19T06:26:37;9.52;;;1.50;;
69334;SDS011;56477;52.742;15.242;2023-05-19T06:29:03;8.37;;;1.60;;
69334;SDS011;56477;52.742;15.242;2023-05-19T06:31:29;5.15;;;2.08;;
69334;SDS011;56477;52.742;15.242;2023-05-19T06:33:57;4.15;;;1.30;;
69334;SDS011;56477;52.742;15.242;2023-05-19T06:36:23;6.47;;;1.70;;
69334;SDS011;56477;52.742;15.242;2023-05-19T06:38:50;5.30;;;1.40;;
69334;SDS011;56477;52.742;15.242;2023-05-19T06:41:16;7.30;;;1.73;;
69334;SDS011;56477;52.742;15.242;2023-05-19T06:43:42;4.60;;;1.60;;
69334;SDS011;56477;52.742;15.242;2023-05-19T06:46:08;6.32;;;1.52;;
69334;SDS011;56477;52.742;15.242;2023-05-19T06:48:35;6.32;;;1.77;;
69334;SDS011;56477;52.742;15.242;2023-05-19T06:51:00;3.57;;;1.07;;
69334;SDS011;56477;52.742;15.242;2023-05-19T06:53:27;6.32;;;2.03;;
69334;SDS011;56477;52.742;15.242;2023-05-19T06:55:52;8.30;;;2.33;;
69334;SDS011;56477;52.742;15.242;2023-05-19T06:58:19;4.40;;;1.73;;
69334;SDS011;56477;52.742;15.242;2023-05-19T07:00:45;6.97;;;1.57;;
69334;SDS011;56477;52.742;15.242;2023-05-19T07:03:11;5.35;;;1.90;;
69334;SDS011;56477;52.742;15.242;2023-05-19T07:05:36;4.40;;;1.40;;
69334;SDS011;56477;52.742;15.242;2023-05-19T07:08:03;6.13;;;1.30;;
69334;SDS011;56477;52.742;15.242;2023-05-19T07:10:29;4.75;;;1.58;;
69334;SDS011;56477;52.742;15.242;2023-05-19T07:12:55;8.02;;;2.15;;
69334;SDS011;56477;52.742;15.242;2023-05-19T07:15:22;5.43;;;1.30;;
69334;SDS011;56477;52.742;15.242;2023-05-19T07:17:48;10.15;;;1.42;;
69334;SDS011;56477;52.742;15.242;2023-05-19T07:20:14;5.40;;;1.60;;
69334;SDS011;56477;52.742;15.242;2023-05-19T07:22:40;5.25;;;1.70;;
69334;SDS011;56477;52.742;15.242;2023-05-19T07:25:06;8.20;;;1.75;;
69334;SDS011;56477;52.742;15.242;2023-05-19T07:27:32;4.88;;;1.55;;
69334;SDS011;56477;52.742;15.242;2023-05-19T07:29:58;5.13;;;2.03;;
69334;SDS011;56477;52.742;15.242;2023-05-19T07:32:24;5.20;;;1.60;;
69334;SDS011;56477;52.742;15.242;2023-05-19T07:34:50;6.85;;;1.60;;
69334;SDS011;56477;52.742;15.242;2023-05-19T07:37:17;8.60;;;2.00;;
69334;SDS011;56477;52.742;15.242;2023-05-19T07:39:42;11.23;;;4.03;;
69334;SDS011;56477;52.742;15.242;2023-05-19T07:42:09;10.02;;;1.52;;
69334;SDS011;56477;52.742;15.242;2023-05-19T07:44:35;5.38;;;1.60;;
69334;SDS011;56477;52.742;15.242;2023-05-19T07:47:01;11.43;;;2.42;;
69334;SDS011;56477;52.742;15.242;2023-05-19T07:49:27;11.87;;;2.00;;
69334;SDS011;56477;52.742;15.242;2023-05-19T07:51:54;3.13;;;1.60;;
69334;SDS011;56477;52.742;15.242;2023-05-19T07:54:20;7.40;;;1.33;;
69334;SDS011;56477;52.742;15.242;2023-05-19T07:56:46;3.85;;;1.55;;
69334;SDS011;56477;52.742;15.242;2023-05-19T07:59:13;7.13;;;1.70;;
69334;SDS011;56477;52.742;15.242;2023-05-19T08:01:39;5.78;;;1.45;;
69334;SDS011;56477;52.742;15.242;2023-05-19T08:04:05;6.35;;;1.48;;
69334;SDS011;56477;52.742;15.242;2023-05-19T08:06:31;5.60;;;1.58;;
69334;SDS011;56477;52.742;15.242;2023-05-19T08:08:57;8.27;;;1.90;;
69334;SDS011;56477;52.742;15.242;2023-05-19T08:11:23;3.95;;;1.58;;
69334;SDS011;56477;52.742;15.242;2023-05-19T08:13:49;3.72;;;1.38;;
69334;SDS011;56477;52.742;15.242;2023-05-19T08:16:15;4.60;;;1.35;;
69334;SDS011;56477;52.742;15.242;2023-05-19T08:18:41;3.93;;;1.80;;
69334;SDS011;56477;52.742;15.242;2023-05-19T08:21:07;3.55;;;1.40;;
69334;SDS011;56477;52.742;15.242;2023-05-19T08:23:33;3.17;;;1.30;;
69334;SDS011;56477;52.742;15.242;2023-05-19T08:25:59;3.55;;;1.45;;
69334;SDS011;56477;52.742;15.242;2023-05-19T08:28:26;5.83;;;1.67;;
69334;SDS011;56477;52.742;15.242;2023-05-19T08:30:52;6.38;;;1.23;;
69334;SDS011;56477;52.742;15.242;2023-05-19T08:33:18;3.72;;;1.40;;
69334;SDS011;56477;52.742;15.242;2023-05-19T08:35:46;3.63;;;1.60;;
69334;SDS011;56477;52.742;15.242;2023-05-19T08:38:12;4.03;;;1.13;;
69334;SDS011;56477;52.742;15.242;2023-05-19T08:40:40;3.33;;;1.30;;
69334;SDS011;56477;52.742;15.242;2023-05-19T08:43:06;7.68;;;1.58;;
69334;SDS011;56477;52.742;15.242;2023-05-19T08:45:33;4.10;;;1.20;;
69334;SDS011;56477;52.742;15.242;2023-05-19T08:47:59;2.67;;;1.25;;
69334;SDS011;56477;52.742;15.242;2023-05-19T08:50:29;4.27;;;1.10;;
69334;SDS011;56477;52.742;15.242;2023-05-19T08:53:07;8.00;;;1.35;;
69334;SDS011;56477;52.742;15.242;2023-05-19T08:58:29;3.35;;;1.10;;
69334;SDS011;56477;52.742;15.242;2023-05-19T09:00:56;4.82;;;1.23;;
69334;SDS011;56477;52.742;15.242;2023-05-19T09:03:25;4.20;;;0.97;;
69334;SDS011;56477;52.742;15.242;2023-05-19T09:05:53;3.15;;;0.98;;
69334;SDS011;56477;52.742;15.242;2023-05-19T09:08:19;4.18;;;1.08;;
69334;SDS011;56477;52.742;15.242;2023-05-19T09:10:45;4.25;;;0.85;;
69334;SDS011;56477;52.742;15.242;2023-05-19T09:13:11;4.17;;;0.90;;
69334;SDS011;56477;52.742;15.242;2023-05-19T09:15:37;2.63;;;1.05;;
69334;SDS011;56477;52.742;15.242;2023-05-19T09:18:11;5.25;;;1.42;;
69334;SDS011;56477;52.742;15.242;2023-05-19T09:20:40;3.75;;;1.10;;
69334;SDS011;56477;52.742;15.242;2023-05-19T09:23:14;4.63;;;1.07;;
69334;SDS011;56477;52.742;15.242;2023-05-19T09:25:48;3.20;;;1.08;;
69334;SDS011;56477;52.742;15.242;2023-05-19T09:28:22;3.90;;;0.85;;
69334;SDS011;56477;52.742;15.242;2023-05-19T09:33:28;2.42;;;0.90;;
69334;SDS011;56477;52.742;15.242;2023-05-19T09:35:55;2.93;;;1.03;;
69334;SDS011;56477;52.742;15.242;2023-05-19T09:38:25;2.13;;;0.70;;
69334;SDS011;56477;52.742;15.242;2023-05-19T09:40:52;7.65;;;0.77;;
69334;SDS011;56477;52.742;15.242;2023-05-19T09:43:21;3.35;;;1.17;;
69334;SDS011;56477;52.742;15.242;2023-05-19T09:45:47;3.05;;;1.20;;
69334;SDS011;56477;52.742;15.242;2023-05-19T09:48:19;1.90;;;0.80;;
69334;SDS011;56477;52.742;15.242;2023-05-19T09:50:45;2.75;;;0.60;;
69334;SDS011;56477;52.742;15.242;2023-05-19T09:53:13;3.05;;;0.55;;
69334;SDS011;56477;52.742;15.242;2023-05-19T09:55:39;1.98;;;0.70;;
69334;SDS011;56477;52.742;15.242;2023-05-19T09:58:07;1.92;;;0.63;;
69334;SDS011;56477;52.742;15.242;2023-05-19T10:00:34;3.20;;;1.13;;
69334;SDS011;56477;52.742;15.242;2023-05-19T10:03:00;3.13;;;0.90;;
69334;SDS011;56477;52.742;15.242;2023-05-19T10:05:29;1.95;;;0.75;;
69334;SDS011;56477;52.742;15.242;2023-05-19T10:07:56;1.90;;;0.70;;
69334;SDS011;56477;52.742;15.242;2023-05-19T10:10:23;2.00;;;0.98;;
69334;SDS011;56477;52.742;15.242;2023-05-19T10:12:49;2.90;;;0.77;;
69334;SDS011;56477;52.742;15.242;2023-05-19T10:15:16;2.33;;;1.10;;
69334;SDS011;56477;52.742;15.242;2023-05-19T10:17:43;2.40;;;0.80;;
69334;SDS011;56477;52.742;15.242;2023-05-19T10:20:11;3.17;;;0.80;;
69334;SDS011;56477;52.742;15.242;2023-05-19T10:22:39;7.35;;;1.17;;
69334;SDS011;56477;52.742;15.242;2023-05-19T10:25:06;2.93;;;0.87;;
69334;SDS011;56477;52.742;15.242;2023-05-19T10:27:34;4.00;;;1.20;;
69334;SDS011;56477;52.742;15.242;2023-05-19T10:30:10;4.38;;;1.38;;
69334;SDS011;56477;52.742;15.242;2023-05-19T10:32:42;2.85;;;0.90;;
69334;SDS011;56477;52.742;15.242;2023-05-19T10:35:15;2.47;;;1.08;;
69334;SDS011;56477;52.742;15.242;2023-05-19T10:37:56;3.23;;;0.93;;
69334;SDS011;56477;52.742;15.242;2023-05-19T10:40:42;4.65;;;1.10;;
69334;SDS011;56477;52.742;15.242;2023-05-19T10:45:55;2.75;;;0.85;;
69334;SDS011;56477;52.742;15.242;2023-05-19T10:48:22;3.30;;;1.10;;
69334;SDS011;56477;52.742;15.242;2023-05-19T10:50:51;2.40;;;0.80;;
69334;SDS011;56477;52.742;15.242;2023-05-19T10:53:19;2.73;;;0.90;;
69334;SDS011;56477;52.742;15.242;2023-05-19T10:55:51;5.63;;;1.00;;
69334;SDS011;56477;52.742;15.242;2023-05-19T10:59:05;4.03;;;0.90;;
69334;SDS011;56477;52.742;15.242;2023-05-19T11:01:19;2.45;;;0.82;;
69334;SDS011;56477;52.742;15.242;2023-05-19T11:06:28;3.00;;;0.90;;
69334;SDS011;56477;52.742;15.242;2023-05-19T11:08:58;5.55;;;0.70;;
69334;SDS011;56477;52.742;15.242;2023-05-19T11:11:41;3.45;;;1.08;;
69334;SDS011;56477;52.742;15.242;2023-05-19T11:14:16;3.40;;;0.90;;
69334;SDS011;56477;52.742;15.242;2023-05-19T11:16:48;8.52;;;1.17;;
69334;SDS011;56477;52.742;15.242;2023-05-19T11:21:51;2.10;;;0.80;;
69334;SDS011;56477;52.742;15.242;2023-05-19T11:32:33;4.03;;;1.07;;
69334;SDS011;56477;52.742;15.242;2023-05-19T11:35:00;5.20;;;0.80;;
69334;SDS011;56477;52.742;15.242;2023-05-19T11:37:27;4.45;;;1.00;;
69334;SDS011;56477;52.742;15.242;2023-05-19T11:39:59;2.28;;;0.90;;
69334;SDS011;56477;52.742;15.242;2023-05-19T11:42:26;2.00;;;0.90;;
69334;SDS011;56477;52.742;15.242;2023-05-19T11:44:55;2.13;;;0.70;;
69334;SDS011;56477;52.742;15.242;2023-05-19T11:47:21;3.08;;;0.93;;
69334;SDS011;56477;52.742;15.242;2023-05-19T11:49:47;3.70;;;0.98;;
69334;SDS011;56477;52.742;15.242;2023-05-19T11:52:14;4.05;;;0.73;;
69334;SDS011;56477;52.742;15.242;2023-05-19T11:54:40;2.30;;;0.87;;
69334;SDS011;56477;52.742;15.242;2023-05-19T11:57:09;4.20;;;1.40;;
69334;SDS011;56477;52.742;15.242;2023-05-19T11:59:36;2.67;;;1.02;;
69334;SDS011;56477;52.742;15.242;2023-05-19T12:02:19;4.15;;;1.00;;
69334;SDS011;56477;52.742;15.242;2023-05-19T12:04:46;5.85;;;1.20;;
69334;SDS011;56477;52.742;15.242;2023-05-19T12:07:21;2.87;;;1.10;;
69334;SDS011;56477;52.742;15.242;2023-05-19T12:09:48;3.50;;;1.23;;
69334;SDS011;56477;52.742;15.242;2023-05-19T12:12:17;3.75;;;1.05;;
69334;SDS011;56477;52.742;15.242;2023-05-19T12:14:49;5.78;;;1.27;;
69334;SDS011;56477;52.742;15.242;2023-05-19T12:17:17;2.00;;;1.02;;
69334;SDS011;56477;52.742;15.242;2023-05-19T12:19:45;3.23;;;1.00;;
69334;SDS011;56477;52.742;15.242;2023-05-19T12:22:16;3.58;;;0.82;;
69334;SDS011;56477;52.742;15.242;2023-05-19T12:24:42;5.78;;;1.00;;
69334;SDS011;56477;52.742;15.242;2023-05-19T12:29:39;2.40;;;0.80;;
69334;SDS011;56477;52.742;15.242;2023-05-19T12:32:06;3.40;;;0.80;;
69334;SDS011;56477;52.742;15.242;2023-05-19T12:34:34;2.22;;;0.88;;
69334;SDS011;56477;52.742;15.242;2023-05-19T12:37:03;5.57;;;0.80;;
69334;SDS011;56477;52.742;15.242;2023-05-19T12:39:29;3.03;;;0.98;;
69334;SDS011;56477;52.742;15.242;2023-05-19T12:42:00;3.65;;;0.85;;
69334;SDS011;56477;52.742;15.242;2023-05-19T12:44:36;2.67;;;0.90;;
69334;SDS011;56477;52.742;15.242;2023-05-19T12:47:05;2.75;;;0.80;;
69334;SDS011;56477;52.742;15.242;2023-05-19T12:49:32;2.58;;;0.80;;
69334;SDS011;56477;52.742;15.242;2023-05-19T12:52:01;3.58;;;0.90;;
69334;SDS011;56477;52.742;15.242;2023-05-19T12:54:31;3.53;;;0.80;;
69334;SDS011;56477;52.742;15.242;2023-05-19T12:56:58;2.93;;;0.90;;
69334;SDS011;56477;52.742;15.242;2023-05-19T12:59:25;3.35;;;1.10;;
69334;SDS011;56477;52.742;15.242;2023-05-19T13:01:55;3.72;;;1.05;;
69334;SDS011;56477;52.742;15.242;2023-05-19T13:04:21;4.68;;;1.05;;
69334;SDS011;56477;52.742;15.242;2023-05-19T13:06:48;3.10;;;0.98;;
69334;SDS011;56477;52.742;15.242;2023-05-19T13:09:14;4.07;;;1.00;;
69334;SDS011;56477;52.742;15.242;2023-05-19T13:11:42;3.03;;;0.90;;
69334;SDS011;56477;52.742;15.242;2023-05-19T13:14:08;3.75;;;1.20;;
69334;SDS011;56477;52.742;15.242;2023-05-19T13:16:35;2.50;;;1.10;;
69334;SDS011;56477;52.742;15.242;2023-05-19T13:19:00;4.20;;;1.20;;
69334;SDS011;56477;52.742;15.242;2023-05-19T13:21:27;2.85;;;1.10;;
69334;SDS011;56477;52.742;15.242;2023-05-19T13:23:53;2.45;;;0.80;;
69334;SDS011;56477;52.742;15.242;2023-05-19T13:26:19;2.90;;;1.08;;
69334;SDS011;56477;52.742;15.242;2023-05-19T13:28:45;3.60;;;1.00;;
69334;SDS011;56477;52.742;15.242;2023-05-19T13:31:12;3.97;;;1.27;;
69334;SDS011;56477;52.742;15.242;2023-05-19T13:33:38;5.43;;;1.02;;
69334;SDS011;56477;52.742;15.242;2023-05-19T13:36:04;2.95;;;1.00;;
69334;SDS011;56477;52.742;15.242;2023-05-19T13:38:30;3.07;;;1.00;;
69334;SDS011;56477;52.742;15.242;2023-05-19T13:40:56;4.95;;;1.20;;
69334;SDS011;56477;52.742;15.242;2023-05-19T13:43:22;2.53;;;1.00;;
69334;SDS011;56477;52.742;15.242;2023-05-19T13:45:48;6.55;;;1.77;;
69334;SDS011;56477;52.742;15.242;2023-05-19T13:48:14;6.13;;;1.13;;
69334;SDS011;56477;52.742;15.242;2023-05-19T13:50:41;6.28;;;1.20;;
69334;SDS011;56477;52.742;15.242;2023-05-19T13:53:06;2.90;;;1.25;;
69334;SDS011;56477;52.742;15.242;2023-05-19T13:55:33;3.38;;;1.15;;
69334;SDS011;56477;52.742;15.242;2023-05-19T13:57:58;2.60;;;1.00;;
69334;SDS011;56477;52.742;15.242;2023-05-19T14:00:24;3.88;;;1.27;;
69334;SDS011;56477;52.742;15.242;2023-05-19T14:02:50;6.78;;;1.08;;
69334;SDS011;56477;52.742;15.242;2023-05-19T14:05:17;4.60;;;1.20;;
69334;SDS011;56477;52.742;15.242;2023-05-19T14:07:43;3.92;;;1.00;;
69334;SDS011;56477;52.742;15.242;2023-05-19T14:10:09;2.72;;;1.27;;
69334;SDS011;56477;52.742;15.242;2023-05-19T14:12:35;2.38;;;1.10;;
69334;SDS011;56477;52.742;15.242;2023-05-19T14:15:01;4.83;;;1.50;;
69334;SDS011;56477;52.742;15.242;2023-05-19T14:17:27;9.75;;;1.10;;
69334;SDS011;56477;52.742;15.242;2023-05-19T14:19:53;4.03;;;1.33;;
69334;SDS011;56477;52.742;15.242;2023-05-19T14:22:20;4.60;;;1.33;;
69334;SDS011;56477;52.742;15.242;2023-05-19T14:24:46;2.22;;;1.10;;
69334;SDS011;56477;52.742;15.242;2023-05-19T14:27:11;2.67;;;0.77;;
69334;SDS011;56477;52.742;15.242;2023-05-19T14:29:38;2.65;;;1.00;;
69334;SDS011;56477;52.742;15.242;2023-05-19T14:32:03;2.28;;;0.80;;
69334;SDS011;56477;52.742;15.242;2023-05-19T14:34:30;2.47;;;1.00;;
69334;SDS011;56477;52.742;15.242;2023-05-19T14:36:56;5.70;;;0.82;;
69334;SDS011;56477;52.742;15.242;2023-05-19T14:39:22;3.42;;;1.05;;
69334;SDS011;56477;52.742;15.242;2023-05-19T14:41:48;2.33;;;0.82;;
69334;SDS011;56477;52.742;15.242;2023-05-19T14:44:16;2.10;;;0.80;;
69334;SDS011;56477;52.742;15.242;2023-05-19T14:46:42;4.15;;;1.15;;
69334;SDS011;56477;52.742;15.242;2023-05-19T14:49:08;2.97;;;1.20;;
69334;SDS011;56477;52.742;15.242;2023-05-19T14:51:34;2.92;;;0.98;;
69334;SDS011;56477;52.742;15.242;2023-05-19T14:54:00;4.60;;;1.13;;
69334;SDS011;56477;52.742;15.242;2023-05-19T14:56:26;2.63;;;0.90;;
69334;SDS011;56477;52.742;15.242;2023-05-19T14:58:52;4.78;;;1.15;;
69334;SDS011;56477;52.742;15.242;2023-05-19T15:01:18;2.53;;;1.00;;
69334;SDS011;56477;52.742;15.242;2023-05-19T15:03:44;4.93;;;0.73;;
69334;SDS011;56477;52.742;15.242;2023-05-19T15:06:10;4.03;;;0.87;;
69334;SDS011;56477;52.742;15.242;2023-05-19T15:08:36;4.07;;;1.00;;
69334;SDS011;56477;52.742;15.242;2023-05-19T15:11:03;4.72;;;1.05;;
69334;SDS011;56477;52.742;15.242;2023-05-19T15:13:29;4.95;;;1.10;;
69334;SDS011;56477;52.742;15.242;2023-05-19T15:15:55;4.27;;;1.20;;
69334;SDS011;56477;52.742;15.242;2023-05-19T15:18:21;4.80;;;0.90;;